createdAt,value
2022-10-16T00:00:35.469Z,72.548000
2022-10-16T00:05:18.283Z,72.236000
2022-10-16T00:10:22.601Z,72.236000
2022-10-16T00:15:23.952Z,72.204286
2022-10-16T00:20:27.225Z,72.368000
2022-10-16T00:25:31.913Z,71.828000
2022-10-16T00:30:33.687Z,70.784000
2022-10-16T00:35:16.359Z,69.740000
2022-10-16T00:40:19.633Z,68.108000
2022-10-16T00:45:22.570Z,66.740000
2022-10-16T00:50:25.599Z,65.396000
2022-10-16T00:55:29.317Z,63.932000
2022-10-16T01:00:30.528Z,63.176000
2022-10-16T01:05:33.486Z,62.420000
2022-10-16T01:10:16.957Z,62.240000
2022-10-16T01:15:19.704Z,62.000000
2022-10-16T01:20:22.724Z,61.430000
2022-10-16T01:25:26.500Z,60.908000
2022-10-16T01:30:28.341Z,60.128000
2022-10-16T01:35:30.790Z,59.804000
2022-10-16T01:40:34.382Z,59.804000
2022-10-16T01:45:36.230Z,59.732000
2022-10-16T01:50:19.662Z,59.156000
2022-10-16T01:55:21.508Z,58.688000
2022-10-16T02:00:25.561Z,58.717143
2022-10-16T02:05:28.457Z,58.580000
2022-10-16T02:10:33.045Z,58.220000
2022-10-16T02:15:34.473Z,57.524000
2022-10-16T02:20:17.434Z,56.768000
2022-10-16T02:25:21.440Z,55.940000
2022-10-16T02:30:23.047Z,55.348571
2022-10-16T02:35:26.315Z,54.776000
2022-10-16T02:40:31.442Z,54.932000
2022-10-16T02:45:31.885Z,55.856000
2022-10-16T02:50:34.483Z,55.364000
2022-10-16T02:55:16.652Z,54.860000
2022-10-16T03:00:19.224Z,54.620000
2022-10-16T03:05:27.407Z,54.848000
2022-10-16T03:10:24.872Z,55.477143
2022-10-16T03:15:26.553Z,55.496000
2022-10-16T03:20:29.307Z,54.440000
2022-10-16T03:25:32.532Z,53.936000
2022-10-16T03:30:34.302Z,53.696000
2022-10-16T03:35:17.663Z,54.956000
2022-10-16T03:40:20.082Z,55.340000
2022-10-16T03:45:22.590Z,54.988571
2022-10-16T03:50:26.141Z,54.320000
2022-10-16T03:55:27.640Z,54.308000
2022-10-16T04:00:30.708Z,55.508000
2022-10-16T04:05:34.368Z,56.348000
2022-10-16T04:10:16.305Z,61.448000
2022-10-16T04:15:19.270Z,64.016000
2022-10-16T04:20:23.905Z,64.940000
2022-10-16T04:25:24.886Z,65.377143
2022-10-16T04:30:27.834Z,65.060000
2022-10-16T04:35:30.255Z,64.232000
2022-10-16T04:40:34.941Z,64.340000
2022-10-16T04:45:17.297Z,64.208000
2022-10-16T04:50:19.318Z,64.004000
2022-10-16T04:55:22.467Z,63.908000
2022-10-16T05:00:24.824Z,63.512857
2022-10-16T05:05:27.209Z,63.404000
2022-10-16T05:10:30.878Z,62.900000
2022-10-16T05:15:33.268Z,62.864000
2022-10-16T05:20:37.342Z,62.480000
2022-10-16T05:25:17.986Z,62.504000
2022-10-16T05:30:20.770Z,62.576000
2022-10-16T05:35:23.609Z,62.137143
2022-10-16T05:40:27.388Z,62.192000
2022-10-16T05:45:30.207Z,62.096000
2022-10-16T05:50:33.771Z,61.976000
2022-10-16T05:55:36.298Z,61.736000
2022-10-16T06:00:17.343Z,61.880000
2022-10-16T06:05:21.547Z,62.132000
2022-10-16T06:10:22.939Z,62.072857
2022-10-16T06:15:26.527Z,62.168000
2022-10-16T06:20:30.551Z,62.108000
2022-10-16T06:25:33.460Z,61.700000
2022-10-16T06:30:35.949Z,62.012000
2022-10-16T06:35:18.199Z,62.396000
2022-10-16T06:40:21.830Z,62.355714
2022-10-16T06:45:24.390Z,62.120000
2022-10-16T06:50:27.393Z,61.904000
2022-10-16T06:55:30.457Z,61.772000
2022-10-16T07:00:32.804Z,61.544000
2022-10-16T07:05:35.682Z,61.592000
2022-10-16T07:10:19.018Z,59.996000
2022-10-16T07:15:22.076Z,60.908000
2022-10-16T07:20:25.058Z,61.237143
2022-10-16T07:25:26.759Z,61.160000
2022-10-16T07:30:29.176Z,61.256000
2022-10-16T07:35:31.646Z,61.376000
2022-10-16T07:40:33.759Z,61.616000
2022-10-16T07:45:16.060Z,61.880000
2022-10-16T07:50:19.486Z,61.640000
2022-10-16T07:55:22.030Z,61.580000
2022-10-16T08:00:23.487Z,61.738571
2022-10-16T08:05:27.841Z,61.640000
2022-10-16T08:10:29.198Z,61.340000
2022-10-16T08:15:31.526Z,61.424000
2022-10-16T08:20:35.010Z,61.052000
2022-10-16T08:25:17.168Z,61.028000
2022-10-16T08:30:21.150Z,61.004000
2022-10-16T08:35:23.668Z,61.185714
2022-10-16T08:40:26.366Z,60.584000
2022-10-16T08:45:29.118Z,60.500000
2022-10-16T08:50:30.839Z,60.656000
2022-10-16T08:55:34.625Z,60.860000
2022-10-16T09:00:16.483Z,60.968000
2022-10-16T09:05:19.331Z,60.776000
2022-10-16T09:10:22.186Z,60.920000
2022-10-16T09:15:24.257Z,61.095714
2022-10-16T09:20:26.817Z,60.896000
2022-10-16T09:25:30.889Z,60.764000
2022-10-16T09:30:33.846Z,60.680000
2022-10-16T09:35:16.187Z,60.452000
2022-10-16T09:40:19.115Z,60.464000
2022-10-16T09:45:21.103Z,60.536000
2022-10-16T09:50:23.677Z,60.388571
2022-10-16T09:55:26.294Z,60.128000
2022-10-16T10:00:30.093Z,60.152000
2022-10-16T10:05:31.899Z,59.720000
2022-10-16T10:10:34.892Z,59.996000
2022-10-16T10:15:18.466Z,60.080000
2022-10-16T10:20:20.112Z,60.188000
2022-10-16T10:25:24.610Z,60.092857
2022-10-16T10:30:26.054Z,59.816000
2022-10-16T10:35:28.388Z,59.540000
2022-10-16T10:40:31.156Z,59.336000
2022-10-16T10:45:33.759Z,59.612000
2022-10-16T10:50:17.441Z,59.681429
2022-10-16T10:55:19.299Z,59.416250
2022-10-16T11:00:21.857Z,59.348000
2022-10-16T11:05:24.015Z,59.064286
2022-10-16T11:10:26.419Z,59.180000
2022-10-16T11:15:31.282Z,59.120000
2022-10-16T11:20:33.354Z,59.420000
2022-10-16T11:25:34.894Z,59.384000
2022-10-16T11:30:17.772Z,59.180000
2022-10-16T11:35:19.219Z,59.240000
2022-10-16T11:40:22.245Z,59.090000
2022-10-16T11:45:25.630Z,58.712000
2022-10-16T11:50:29.270Z,58.760000
2022-10-16T11:55:29.861Z,58.808000
2022-10-16T12:00:32.230Z,58.784000
2022-10-16T12:05:36.353Z,58.736000
2022-10-16T12:10:18.129Z,58.640000
2022-10-16T12:15:25.990Z,58.880000
2022-10-16T12:20:25.125Z,58.820000
2022-10-16T12:25:27.205Z,58.820000
2022-10-16T12:30:33.633Z,58.880000
2022-10-16T12:35:32.690Z,58.796000
2022-10-16T12:40:36.369Z,58.640000
2022-10-16T12:45:18.125Z,58.724000
2022-10-16T12:50:21.728Z,58.640000
2022-10-16T12:55:24.337Z,58.592000
2022-10-16T13:00:27.546Z,58.556000
2022-10-16T13:05:31.327Z,58.388000
2022-10-16T13:10:32.948Z,58.532000
2022-10-16T13:15:35.594Z,58.460000
2022-10-16T13:20:17.672Z,58.460000
2022-10-16T13:25:21.520Z,58.412000
2022-10-16T13:30:28.164Z,58.215714
2022-10-16T13:35:27.781Z,58.208000
2022-10-16T13:40:29.086Z,57.932000
2022-10-16T13:45:31.766Z,58.148000
2022-10-16T13:50:34.232Z,58.220000
2022-10-16T13:55:16.942Z,57.896000
2022-10-16T14:00:20.803Z,57.980000
2022-10-16T14:05:22.333Z,57.920000
2022-10-16T14:10:25.179Z,57.992000
2022-10-16T14:15:28.562Z,57.920000
2022-10-16T14:20:31.944Z,57.920000
2022-10-16T14:25:35.768Z,58.064000
2022-10-16T14:30:18.453Z,57.908000
2022-10-16T14:35:21.371Z,57.688571
2022-10-16T14:40:24.116Z,57.416000
2022-10-16T14:45:27.630Z,57.644000
2022-10-16T14:50:29.485Z,57.836000
2022-10-16T14:55:32.557Z,57.920000
2022-10-16T15:00:36.307Z,57.920000
2022-10-16T15:05:19.142Z,58.220000
2022-10-16T15:10:21.972Z,58.520000
2022-10-16T15:15:25.346Z,58.562857
2022-10-16T15:20:26.732Z,58.916000
2022-10-16T15:25:29.590Z,58.916000
2022-10-16T15:30:34.469Z,59.024000
2022-10-16T15:35:35.673Z,59.588000
2022-10-16T15:40:18.056Z,59.720000
2022-10-16T15:45:21.298Z,59.972000
2022-10-16T15:50:23.934Z,60.208571
2022-10-16T15:55:26.874Z,60.488000
2022-10-16T16:00:29.190Z,60.728000
2022-10-16T16:05:31.964Z,60.848000
2022-10-16T16:10:34.498Z,61.124000
2022-10-16T16:15:16.763Z,61.592000
2022-10-16T16:20:20.221Z,62.084000
2022-10-16T16:25:22.515Z,61.712857
2022-10-16T16:30:28.343Z,61.460000
2022-10-16T16:35:28.937Z,61.952000
2022-10-16T16:40:32.670Z,62.288000
2022-10-16T16:45:34.187Z,62.588000
2022-10-16T16:50:16.684Z,63.164000
2022-10-16T16:55:21.043Z,63.512000
2022-10-16T17:00:23.336Z,63.590000
2022-10-16T17:05:25.896Z,64.160000
2022-10-16T17:10:28.566Z,64.184000
2022-10-16T17:15:31.837Z,64.652000
2022-10-16T17:20:35.003Z,64.748000
2022-10-16T17:25:17.694Z,65.216000
2022-10-16T17:30:21.795Z,65.852000
2022-10-16T17:35:23.981Z,66.367143
2022-10-16T17:40:27.047Z,66.164000
2022-10-16T17:45:29.746Z,65.936000
2022-10-16T17:50:31.882Z,67.208000
2022-10-16T17:55:34.384Z,67.232000
2022-10-16T18:00:19.165Z,66.968000
2022-10-16T18:05:20.618Z,67.472000
2022-10-16T18:10:24.937Z,67.665714
2022-10-16T18:15:28.310Z,67.520000
2022-10-16T18:20:31.133Z,67.904000
2022-10-16T18:25:32.953Z,68.696000
2022-10-16T18:30:36.118Z,69.164000
2022-10-16T18:35:18.976Z,69.116000
2022-10-16T18:40:22.387Z,69.362857
2022-10-16T18:45:26.771Z,69.440000
2022-10-16T18:50:27.730Z,69.800000
2022-10-16T18:55:32.086Z,69.308000
2022-10-16T19:00:34.106Z,69.020000
2022-10-16T19:05:17.119Z,68.804000
2022-10-16T19:10:19.992Z,68.576000
2022-10-16T19:15:22.800Z,69.144286
2022-10-16T19:20:25.983Z,69.188000
2022-10-16T19:25:29.384Z,68.564000
2022-10-16T19:30:31.725Z,69.116000
2022-10-16T19:35:34.292Z,69.500000
2022-10-16T19:40:17.893Z,70.088000
2022-10-16T19:45:20.350Z,69.920000
2022-10-16T19:50:24.615Z,70.301429
2022-10-16T19:55:25.092Z,70.880000
2022-10-16T20:00:28.254Z,72.176000
2022-10-16T20:05:31.449Z,72.140000
2022-10-16T20:10:35.309Z,72.740000
2022-10-16T20:15:16.850Z,71.708000
2022-10-16T20:20:20.469Z,72.380000
2022-10-16T20:25:25.003Z,72.860000
2022-10-16T20:30:26.325Z,72.620000
2022-10-16T20:35:30.333Z,72.140000
2022-10-16T20:40:33.478Z,72.008000
2022-10-16T20:45:35.464Z,72.620000
2022-10-16T20:50:18.880Z,73.160000
2022-10-16T20:55:21.724Z,72.728000
2022-10-16T21:00:24.650Z,72.950000
2022-10-16T21:05:27.047Z,73.040000
2022-10-16T21:10:31.055Z,73.220000
2022-10-16T21:15:32.859Z,73.868000
2022-10-16T21:20:16.905Z,74.432000
2022-10-16T21:25:19.208Z,73.688000
2022-10-16T21:30:22.400Z,73.515714
2022-10-16T21:35:25.151Z,73.808000
2022-10-16T21:40:28.823Z,73.928000
2022-10-16T21:45:30.472Z,74.240000
2022-10-16T21:50:33.161Z,74.216000
2022-10-16T21:55:35.960Z,73.172000
2022-10-16T22:00:19.356Z,72.860000
2022-10-16T22:05:22.792Z,73.078571
2022-10-16T22:10:27.482Z,73.616000
2022-10-16T22:15:28.951Z,73.208000
2022-10-16T22:20:33.950Z,73.556000
2022-10-16T22:25:36.948Z,73.616000
2022-10-16T22:30:17.785Z,74.492000
2022-10-16T22:35:21.793Z,75.332000
2022-10-16T22:40:23.368Z,74.454286
2022-10-16T22:45:26.582Z,74.012000
2022-10-16T22:50:31.550Z,74.600000
2022-10-16T22:55:34.192Z,73.916000
2022-10-16T23:00:38.170Z,74.252000
2022-10-16T23:05:18.421Z,74.636000
2022-10-16T23:10:22.368Z,74.696000
2022-10-16T23:15:26.146Z,74.981429
2022-10-16T23:20:28.581Z,74.516000
2022-10-16T23:25:31.253Z,74.696000
2022-10-16T23:30:33.949Z,74.072000
2022-10-16T23:35:16.422Z,74.204000
2022-10-16T23:40:19.525Z,73.172000
2022-10-16T23:45:22.034Z,73.232000
2022-10-16T23:50:25.097Z,73.130000
2022-10-16T23:55:27.685Z,72.728000
